createdAt,value
2022-12-04T00:00:50.317Z,1.08
2022-12-04T00:01:50.311Z,1.10
2022-12-04T00:02:50.338Z,1.10
2022-12-04T00:03:50.279Z,1.07
2022-12-04T00:04:50.333Z,1.07
2022-12-04T00:05:50.260Z,1.08
2022-12-04T00:06:54.120Z,1.10
2022-12-04T00:07:51.357Z,1.08
2022-12-04T00:08:50.237Z,1.07
2022-12-04T00:09:50.238Z,1.08
2022-12-04T00:10:50.252Z,1.07
2022-12-04T00:11:50.195Z,1.07
2022-12-04T00:12:50.176Z,1.06
2022-12-04T00:13:50.157Z,1.08
2022-12-04T00:15:23.809Z,1.07
2022-12-04T00:15:51.183Z,1.08
2022-12-04T00:16:50.193Z,1.08
2022-12-04T00:17:50.106Z,1.08
2022-12-04T00:18:50.118Z,1.08
2022-12-04T00:19:50.137Z,1.08
2022-12-04T00:20:50.078Z,1.08
2022-12-04T00:21:50.069Z,1.10
2022-12-04T00:22:50.055Z,1.12
2022-12-04T00:23:50.031Z,1.14
2022-12-04T00:24:50.025Z,1.12
2022-12-04T00:25:50.007Z,1.10
2022-12-04T00:26:50.010Z,1.08
2022-12-04T00:27:49.976Z,1.08
2022-12-04T00:28:49.970Z,1.10
2022-12-04T00:29:49.939Z,1.08
2022-12-04T00:30:49.946Z,1.07
2022-12-04T00:31:49.947Z,1.07
2022-12-04T00:32:49.938Z,1.06
2022-12-04T00:33:49.906Z,1.08
2022-12-04T00:34:49.910Z,1.12
2022-12-04T00:35:49.877Z,1.10
2022-12-04T00:36:49.870Z,1.10
2022-12-04T00:37:49.872Z,1.12
2022-12-04T00:38:49.867Z,1.14
2022-12-04T00:39:49.828Z,1.14
2022-12-04T00:40:49.818Z,1.10
2022-12-04T00:41:49.795Z,1.10
2022-12-04T00:42:49.820Z,1.14
2022-12-04T00:43:49.764Z,1.14
2022-12-04T00:44:49.777Z,1.12
2022-12-04T00:45:49.835Z,1.14
2022-12-04T00:46:49.725Z,1.10
2022-12-04T00:47:49.728Z,1.10
2022-12-04T00:48:49.698Z,1.07
2022-12-04T00:49:49.708Z,1.07
2022-12-04T00:50:49.687Z,1.07
2022-12-04T00:51:49.671Z,1.07
2022-12-04T00:52:49.657Z,1.08
2022-12-04T00:53:49.647Z,1.08
2022-12-04T00:54:49.641Z,1.10
2022-12-04T00:55:49.648Z,1.10
2022-12-04T00:56:49.616Z,1.07
2022-12-04T00:57:49.617Z,1.07
2022-12-04T00:58:49.603Z,1.06
2022-12-04T00:59:49.565Z,1.08
2022-12-04T01:00:49.614Z,1.07
2022-12-04T01:01:49.559Z,1.06
2022-12-04T01:02:49.548Z,1.04
2022-12-04T01:03:49.538Z,1.04
2022-12-04T01:04:49.524Z,1.04
2022-12-04T01:05:49.510Z,1.07
2022-12-04T01:06:49.479Z,1.06
2022-12-04T01:07:49.599Z,1.07
2022-12-04T01:08:49.447Z,1.07
2022-12-04T01:09:49.467Z,1.08
2022-12-04T01:10:49.424Z,1.08
2022-12-04T01:11:49.419Z,1.10
2022-12-04T01:12:49.398Z,1.10
2022-12-04T01:13:49.397Z,1.08
2022-12-04T01:14:49.384Z,1.08
2022-12-04T01:15:49.376Z,1.08
2022-12-04T01:16:49.402Z,1.08
2022-12-04T01:17:49.338Z,1.08
2022-12-04T01:18:49.315Z,1.07
2022-12-04T01:19:49.306Z,1.06
2022-12-04T01:20:49.318Z,1.08
2022-12-04T01:21:49.306Z,1.08
2022-12-04T01:22:49.274Z,1.08
2022-12-04T01:23:49.296Z,1.08
2022-12-04T01:24:49.248Z,1.08
2022-12-04T01:25:49.260Z,1.07
2022-12-04T01:26:49.247Z,1.08
2022-12-04T01:27:49.219Z,1.10
2022-12-04T01:28:49.198Z,1.08
2022-12-04T01:29:49.183Z,1.10
2022-12-04T01:30:49.156Z,1.10
2022-12-04T01:31:49.237Z,1.10
2022-12-04T01:32:49.136Z,1.10
2022-12-04T01:33:49.145Z,1.12
2022-12-04T01:34:49.116Z,1.10
2022-12-04T01:35:49.106Z,1.10
2022-12-04T01:36:49.113Z,1.10
2022-12-04T01:37:49.107Z,1.07
2022-12-04T01:38:49.080Z,1.06
2022-12-04T01:39:49.083Z,1.08
2022-12-04T01:40:49.040Z,1.08
2022-12-04T01:41:49.062Z,1.08
2022-12-04T01:42:49.034Z,1.08
2022-12-04T01:43:49.027Z,1.08
2022-12-04T01:44:48.996Z,1.06
2022-12-04T01:45:49.037Z,1.06
2022-12-04T01:46:48.965Z,1.08
2022-12-04T01:47:48.963Z,1.07
2022-12-04T01:48:48.976Z,1.07
2022-12-04T01:49:48.937Z,1.07
2022-12-04T01:50:48.920Z,1.07
2022-12-04T01:51:48.916Z,1.07
2022-12-04T01:52:48.897Z,1.08
2022-12-04T01:53:48.905Z,1.08
2022-12-04T01:54:48.875Z,1.07
2022-12-04T01:55:48.855Z,1.10
2022-12-04T01:56:48.846Z,1.10
2022-12-04T01:57:48.824Z,1.10
2022-12-04T01:58:48.806Z,1.08
2022-12-04T01:59:48.813Z,1.07
2022-12-04T02:00:51.763Z,1.07
2022-12-04T02:01:48.893Z,1.08
2022-12-04T02:02:48.833Z,1.08
2022-12-04T02:03:48.766Z,1.07
2022-12-04T02:04:48.737Z,1.06
2022-12-04T02:05:48.728Z,1.04
2022-12-04T02:06:48.738Z,1.04
2022-12-04T02:07:48.790Z,1.06
2022-12-04T02:08:48.689Z,1.06
2022-12-04T02:09:48.685Z,1.06
2022-12-04T02:10:48.656Z,1.06
2022-12-04T02:11:48.673Z,1.07
2022-12-04T02:12:48.635Z,1.08
2022-12-04T02:13:48.634Z,1.08
2022-12-04T02:14:48.606Z,1.07
2022-12-04T02:15:48.624Z,1.08
2022-12-04T02:16:48.646Z,1.06
2022-12-04T02:17:48.576Z,1.07
2022-12-04T02:18:48.567Z,1.06
2022-12-04T02:19:48.560Z,1.03
2022-12-04T02:20:48.551Z,1.01
2022-12-04T02:21:48.539Z,1.03
2022-12-04T02:22:48.518Z,1.04
2022-12-04T02:23:48.519Z,1.03
2022-12-04T02:24:50.359Z,1.04
2022-12-04T02:25:48.494Z,1.04
2022-12-04T02:26:48.469Z,1.04
2022-12-04T02:27:55.453Z,1.06
2022-12-04T02:28:48.437Z,1.04
2022-12-04T02:29:48.414Z,1.07
2022-12-04T02:30:48.421Z,1.07
2022-12-04T02:31:48.407Z,1.06
2022-12-04T02:32:48.388Z,1.06
2022-12-04T02:33:48.395Z,1.07
2022-12-04T02:34:48.357Z,1.08
2022-12-04T02:35:48.355Z,1.10
2022-12-04T02:36:48.326Z,1.10
2022-12-04T02:37:48.324Z,1.12
2022-12-04T02:38:48.304Z,1.14
2022-12-04T02:39:48.305Z,1.12
2022-12-04T02:40:48.273Z,1.10
2022-12-04T02:41:48.262Z,1.12
2022-12-04T02:42:48.243Z,1.12
2022-12-04T02:43:48.293Z,1.14
2022-12-04T02:44:48.242Z,1.07
2022-12-04T02:45:48.286Z,1.07
2022-12-04T02:46:48.212Z,1.08
2022-12-04T02:47:48.204Z,1.10
2022-12-04T02:48:48.175Z,1.12
2022-12-04T02:49:48.174Z,1.12
2022-12-04T02:50:48.154Z,1.10
2022-12-04T02:51:48.151Z,1.10
2022-12-04T02:52:48.121Z,1.10
2022-12-04T02:53:48.113Z,1.10
2022-12-04T02:54:48.091Z,1.08
2022-12-04T02:55:48.112Z,1.08
2022-12-04T02:56:48.094Z,1.08
2022-12-04T02:57:48.074Z,1.14
2022-12-04T02:58:48.055Z,1.10
2022-12-04T02:59:48.044Z,1.08
2022-12-04T03:00:48.034Z,1.10
2022-12-04T03:01:48.103Z,1.08
2022-12-04T03:02:48.029Z,1.12
2022-12-04T03:03:47.991Z,1.12
2022-12-04T03:04:47.963Z,1.12
2022-12-04T03:05:48.003Z,1.12
2022-12-04T03:06:47.941Z,1.15
2022-12-04T03:07:47.998Z,1.15
2022-12-04T03:08:47.911Z,1.12
2022-12-04T03:09:47.914Z,1.12
2022-12-04T03:10:47.907Z,1.14
2022-12-04T03:11:47.892Z,1.14
2022-12-04T03:12:47.873Z,1.16
2022-12-04T03:13:47.873Z,1.12
2022-12-04T03:14:47.843Z,1.08
2022-12-04T03:15:47.844Z,1.08
2022-12-04T03:16:47.942Z,1.08
2022-12-04T03:17:47.820Z,1.07
2022-12-04T03:18:47.793Z,1.08
2022-12-04T03:19:47.780Z,1.10
2022-12-04T03:20:47.761Z,1.07
2022-12-04T03:21:47.765Z,1.08
2022-12-04T03:22:47.749Z,1.10
2022-12-04T03:23:47.741Z,1.10
2022-12-04T03:24:47.713Z,1.08
2022-12-04T03:25:48.540Z,1.08
2022-12-04T03:26:47.721Z,1.06
2022-12-04T03:27:47.683Z,1.07
2022-12-04T03:28:47.681Z,1.08
2022-12-04T03:29:47.662Z,1.08
2022-12-04T03:30:47.682Z,1.10
2022-12-04T03:31:47.662Z,1.12
2022-12-04T03:32:47.612Z,1.12
2022-12-04T03:33:47.610Z,1.14
2022-12-04T03:34:47.602Z,1.12
2022-12-04T03:35:47.652Z,1.10
2022-12-04T03:36:47.552Z,1.10
2022-12-04T03:37:47.550Z,1.12
2022-12-04T03:38:47.530Z,1.14
2022-12-04T03:39:47.521Z,1.12
2022-12-04T03:40:47.518Z,1.15
2022-12-04T03:41:49.954Z,1.14
2022-12-04T03:42:47.482Z,1.14
2022-12-04T03:43:47.515Z,1.16
2022-12-04T03:44:47.464Z,1.16
2022-12-04T03:45:47.514Z,1.15
2022-12-04T03:46:47.431Z,1.18
2022-12-04T03:47:47.431Z,1.12
2022-12-04T03:48:47.453Z,1.15
2022-12-04T03:49:47.401Z,1.15
2022-12-04T03:50:47.382Z,1.16
2022-12-04T03:51:47.378Z,1.16
2022-12-04T03:52:47.415Z,1.19
2022-12-04T03:53:47.556Z,1.19
2022-12-04T03:54:47.330Z,1.22
2022-12-04T03:55:47.331Z,1.22
2022-12-04T03:56:47.311Z,1.24
2022-12-04T03:57:47.312Z,1.24
2022-12-04T03:58:47.290Z,1.25
2022-12-04T03:59:49.896Z,1.24
2022-12-04T04:00:48.249Z,1.22
2022-12-04T04:01:47.313Z,1.22
2022-12-04T04:02:47.263Z,1.24
2022-12-04T04:03:47.258Z,1.25
2022-12-04T04:04:47.199Z,1.28
2022-12-04T04:05:47.190Z,1.26
2022-12-04T04:06:47.178Z,1.28
2022-12-04T04:07:47.260Z,1.28
2022-12-04T04:08:47.150Z,1.33
2022-12-04T04:09:47.170Z,1.33
2022-12-04T04:10:47.131Z,1.34
2022-12-04T04:11:47.149Z,1.32
2022-12-04T04:12:47.124Z,1.33
2022-12-04T04:13:47.119Z,1.34
2022-12-04T04:14:47.080Z,1.34
2022-12-04T04:15:47.116Z,1.34
2022-12-04T04:16:47.060Z,1.32
2022-12-04T04:17:47.059Z,1.33
2022-12-04T04:18:47.018Z,1.34
2022-12-04T04:19:47.020Z,1.33
2022-12-04T04:20:46.999Z,1.33
2022-12-04T04:21:46.989Z,1.34
2022-12-04T04:22:49.405Z,1.34
2022-12-04T04:23:47.970Z,1.34
2022-12-04T04:24:47.040Z,1.34
2022-12-04T04:25:46.962Z,1.34
2022-12-04T04:26:46.931Z,1.36
2022-12-04T04:27:46.920Z,1.37
2022-12-04T04:28:46.910Z,1.36
2022-12-04T04:29:52.296Z,1.36
2022-12-04T04:30:47.895Z,1.37
2022-12-04T04:31:46.859Z,1.36
2022-12-04T04:32:46.838Z,1.37
2022-12-04T04:33:46.848Z,1.39
2022-12-04T04:34:46.818Z,1.40
2022-12-04T04:35:46.819Z,1.40
2022-12-04T04:36:46.797Z,1.39
2022-12-04T04:37:46.796Z,1.39
2022-12-04T04:38:46.768Z,1.37
2022-12-04T04:39:46.779Z,1.37
2022-12-04T04:40:46.759Z,1.40
2022-12-04T04:41:46.739Z,1.40
2022-12-04T04:42:46.726Z,1.42
2022-12-04T04:43:46.711Z,1.43
2022-12-04T04:44:46.712Z,1.40
2022-12-04T04:45:46.690Z,1.39
2022-12-04T04:46:46.707Z,1.40
2022-12-04T04:47:46.658Z,1.40
2022-12-04T04:48:46.708Z,1.39
2022-12-04T04:49:46.646Z,1.40
2022-12-04T04:50:46.606Z,1.39
2022-12-04T04:51:46.615Z,1.39
2022-12-04T04:52:46.591Z,1.40
2022-12-04T04:53:46.586Z,1.39
2022-12-04T04:54:46.566Z,1.40
2022-12-04T04:55:46.559Z,1.42
2022-12-04T04:56:46.537Z,1.43
2022-12-04T04:57:46.536Z,1.43
2022-12-04T04:58:46.518Z,1.43
2022-12-04T04:59:46.516Z,1.43
2022-12-04T05:00:46.508Z,1.44
2022-12-04T05:01:46.562Z,1.44
2022-12-04T05:02:46.544Z,1.44
2022-12-04T05:03:46.447Z,1.44
2022-12-04T05:04:46.436Z,1.43
2022-12-04T05:05:46.429Z,1.42
2022-12-04T05:06:46.417Z,1.42
2022-12-04T05:07:46.456Z,1.43
2022-12-04T05:08:46.385Z,1.43
2022-12-04T05:09:46.386Z,1.43
2022-12-04T05:10:46.366Z,1.42
2022-12-04T05:11:46.347Z,1.42
2022-12-04T05:12:46.349Z,1.43
2022-12-04T05:13:46.318Z,1.40
2022-12-04T05:14:46.335Z,1.42
2022-12-04T05:15:46.388Z,1.40
2022-12-04T05:16:46.296Z,1.43
2022-12-04T05:17:46.287Z,1.44
2022-12-04T05:18:46.277Z,1.43
2022-12-04T05:19:46.246Z,1.44
2022-12-04T05:20:46.237Z,1.43
2022-12-04T05:21:46.215Z,1.44
2022-12-04T05:22:46.206Z,1.44
2022-12-04T05:23:46.213Z,1.46
2022-12-04T05:24:46.186Z,1.43
2022-12-04T05:25:46.175Z,1.43
2022-12-04T05:26:46.156Z,1.44
2022-12-04T05:27:46.146Z,1.43
2022-12-04T05:28:46.147Z,1.42
2022-12-04T05:29:46.128Z,1.42
2022-12-04T05:30:46.134Z,1.42
2022-12-04T05:31:46.183Z,1.42
2022-12-04T05:32:46.097Z,1.42
2022-12-04T05:33:46.075Z,1.43
2022-12-04T05:34:46.066Z,1.43
2022-12-04T05:35:46.048Z,1.42
2022-12-04T05:36:46.033Z,1.43
2022-12-04T05:37:46.016Z,1.43
2022-12-04T05:38:46.015Z,1.43
2022-12-04T05:39:45.985Z,1.43
2022-12-04T05:40:45.985Z,1.43
2022-12-04T05:41:45.976Z,1.43
2022-12-04T05:42:45.964Z,1.42
2022-12-04T05:43:45.938Z,1.42
2022-12-04T05:44:45.936Z,1.44
2022-12-04T05:45:45.915Z,1.43
2022-12-04T05:46:45.962Z,1.44
2022-12-04T05:47:45.907Z,1.46
2022-12-04T05:48:45.876Z,1.46
2022-12-04T05:49:45.865Z,1.46
2022-12-04T05:50:45.857Z,1.47
2022-12-04T05:51:45.835Z,1.44
2022-12-04T05:52:45.848Z,1.47
2022-12-04T05:53:45.803Z,1.46
2022-12-04T05:54:45.814Z,1.47
2022-12-04T05:55:45.785Z,1.46
2022-12-04T05:56:45.786Z,1.47
2022-12-04T05:57:45.794Z,1.46
2022-12-04T05:58:45.754Z,1.43
2022-12-04T05:59:45.825Z,1.43
2022-12-04T06:00:45.725Z,1.42
2022-12-04T06:01:45.770Z,1.43
2022-12-04T06:02:45.729Z,1.43
2022-12-04T06:03:45.694Z,1.44
2022-12-04T06:04:45.677Z,1.43
2022-12-04T06:05:45.654Z,1.43
2022-12-04T06:06:45.658Z,1.44
2022-12-04T06:07:45.683Z,1.46
2022-12-04T06:08:45.644Z,1.44
2022-12-04T06:09:45.605Z,1.46
2022-12-04T06:10:45.615Z,1.46
2022-12-04T06:11:45.587Z,1.46
2022-12-04T06:12:45.596Z,1.51
2022-12-04T06:13:45.574Z,1.51
2022-12-04T06:14:45.556Z,1.52
2022-12-04T06:15:45.525Z,1.51
2022-12-04T06:16:45.599Z,1.47
2022-12-04T06:17:45.494Z,1.50
2022-12-04T06:18:45.504Z,1.51
2022-12-04T06:19:45.621Z,1.52
2022-12-04T06:20:45.543Z,1.54
2022-12-04T06:21:45.453Z,1.54
2022-12-04T06:22:45.444Z,1.51
2022-12-04T06:23:45.445Z,1.51
2022-12-04T06:24:45.436Z,1.50
2022-12-04T06:25:45.424Z,1.47
2022-12-04T06:27:10.961Z,1.47
2022-12-04T06:27:46.384Z,1.50
2022-12-04T06:28:45.392Z,1.52
2022-12-04T06:29:45.354Z,1.54
2022-12-04T06:30:45.368Z,1.54
2022-12-04T06:31:45.364Z,1.54
2022-12-04T06:32:45.313Z,1.52
2022-12-04T06:33:45.302Z,1.54
2022-12-04T06:34:45.292Z,1.54
2022-12-04T06:35:45.274Z,1.54
2022-12-04T06:36:45.280Z,1.55
2022-12-04T06:37:45.242Z,1.57
2022-12-04T06:38:45.254Z,1.57
2022-12-04T06:39:45.224Z,1.57
2022-12-04T06:40:45.224Z,1.57
2022-12-04T06:41:45.194Z,1.55
2022-12-04T06:42:45.195Z,1.57
2022-12-04T06:43:45.173Z,1.55
2022-12-04T06:44:45.181Z,1.54
2022-12-04T06:45:45.229Z,1.55
2022-12-04T06:46:47.240Z,1.55
2022-12-04T06:47:45.112Z,1.57
2022-12-04T06:48:45.130Z,1.58
2022-12-04T06:49:45.083Z,1.58
2022-12-04T06:50:45.102Z,1.61
2022-12-04T06:51:45.061Z,1.60
2022-12-04T06:52:45.072Z,1.61
2022-12-04T06:53:45.041Z,1.62
2022-12-04T06:54:45.106Z,1.62
2022-12-04T06:55:45.014Z,1.61
2022-12-04T06:56:45.030Z,1.64
2022-12-04T06:57:44.995Z,1.62
2022-12-04T06:58:44.988Z,1.61
2022-12-04T06:59:45.010Z,1.60
2022-12-04T07:00:45.030Z,1.61
2022-12-04T07:01:44.942Z,1.61
2022-12-04T07:02:45.026Z,1.61
2022-12-04T07:03:49.531Z,1.60
2022-12-04T07:04:45.924Z,1.61
2022-12-04T07:05:44.882Z,1.62
2022-12-04T07:06:44.884Z,1.62
2022-12-04T07:07:44.941Z,1.64
2022-12-04T07:08:44.863Z,1.64
2022-12-04T07:09:44.901Z,1.64
2022-12-04T07:10:44.846Z,1.64
2022-12-04T07:11:44.808Z,1.65
2022-12-04T07:12:44.810Z,1.65
2022-12-04T07:13:44.781Z,1.64
2022-12-04T07:14:44.780Z,1.64
2022-12-04T07:15:44.751Z,1.64
2022-12-04T07:16:44.794Z,1.65
2022-12-04T07:17:44.732Z,1.68
2022-12-04T07:18:44.745Z,1.69
2022-12-04T07:19:44.710Z,1.69
2022-12-04T07:20:44.705Z,1.71
2022-12-04T07:21:44.693Z,1.72
2022-12-04T07:22:44.692Z,1.68
2022-12-04T07:23:44.663Z,1.68
2022-12-04T07:24:44.653Z,1.68
2022-12-04T07:25:44.641Z,1.69
2022-12-04T07:26:44.625Z,1.71
2022-12-04T07:27:44.613Z,1.69
2022-12-04T07:28:44.612Z,1.68
2022-12-04T07:29:44.588Z,1.68
2022-12-04T07:30:44.575Z,1.68
2022-12-04T07:31:44.756Z,1.68
2022-12-04T07:32:44.550Z,1.69
2022-12-04T07:33:44.529Z,1.71
2022-12-04T07:34:44.519Z,1.69
2022-12-04T07:35:44.551Z,1.72
2022-12-04T07:36:44.500Z,1.71
2022-12-04T07:37:44.481Z,1.69
2022-12-04T07:38:44.471Z,1.71
2022-12-04T07:39:44.471Z,1.71
2022-12-04T07:40:44.452Z,1.73
2022-12-04T07:41:44.432Z,1.73
2022-12-04T07:42:44.431Z,1.73
2022-12-04T07:43:44.392Z,1.75
2022-12-04T07:44:44.389Z,1.76
2022-12-04T07:45:44.410Z,1.76
2022-12-04T07:46:44.391Z,1.79
2022-12-04T07:47:44.369Z,1.78
2022-12-04T07:48:44.341Z,1.78
2022-12-04T07:49:44.319Z,1.79
2022-12-04T07:50:44.329Z,1.76
2022-12-04T07:51:44.303Z,1.79
2022-12-04T07:52:44.302Z,1.78
2022-12-04T07:53:44.275Z,1.80
2022-12-04T07:54:44.272Z,1.79
2022-12-04T07:55:44.259Z,1.80
2022-12-04T07:56:44.261Z,1.79
2022-12-04T07:57:44.242Z,1.80
2022-12-04T07:58:44.229Z,1.83
2022-12-04T07:59:44.204Z,1.80
2022-12-04T08:00:44.209Z,1.82
2022-12-04T08:01:44.337Z,1.85
2022-12-04T08:02:44.186Z,1.85
2022-12-04T08:03:47.958Z,1.87
2022-12-04T08:04:44.238Z,1.87
2022-12-04T08:05:44.129Z,1.85
2022-12-04T08:06:44.149Z,1.83
2022-12-04T08:07:44.140Z,1.83
2022-12-04T08:08:44.090Z,1.82
2022-12-04T08:09:44.072Z,1.83
2022-12-04T08:10:44.070Z,1.85
2022-12-04T08:11:44.143Z,1.87
2022-12-04T08:12:44.055Z,1.90
2022-12-04T08:13:44.018Z,1.90
2022-12-04T08:14:44.009Z,1.91
2022-12-04T08:15:43.991Z,1.91
2022-12-04T08:16:48.181Z,1.90
2022-12-04T08:17:44.979Z,1.91
2022-12-04T08:18:43.970Z,1.90
2022-12-04T08:19:43.939Z,1.90
2022-12-04T08:20:43.937Z,1.90
2022-12-04T08:21:43.922Z,1.87
2022-12-04T08:22:43.910Z,1.87
2022-12-04T08:23:43.901Z,1.87
2022-12-04T08:24:43.892Z,1.89
2022-12-04T08:25:44.002Z,1.90
2022-12-04T08:26:43.856Z,1.91
2022-12-04T08:27:50.964Z,1.91
2022-12-04T08:28:43.927Z,1.91
2022-12-04T08:29:43.826Z,1.90
2022-12-04T08:30:43.848Z,1.90
2022-12-04T08:31:43.805Z,1.93
2022-12-04T08:32:43.812Z,1.91
2022-12-04T08:33:43.794Z,1.91
2022-12-04T08:34:43.763Z,1.93
2022-12-04T08:35:43.744Z,1.94
2022-12-04T08:36:43.741Z,1.97
2022-12-04T08:37:43.725Z,1.98
2022-12-04T08:38:43.715Z,1.99
2022-12-04T08:39:43.692Z,1.98
2022-12-04T08:40:43.693Z,1.98
2022-12-04T08:41:43.665Z,2.02
2022-12-04T08:42:43.663Z,2.02
2022-12-04T08:43:43.662Z,2.02
2022-12-04T08:44:43.662Z,2.06
2022-12-04T08:45:43.675Z,2.08
2022-12-04T08:46:43.656Z,2.09
2022-12-04T08:47:46.859Z,2.06
2022-12-04T08:48:44.586Z,2.06
2022-12-04T08:49:43.578Z,2.06
2022-12-04T08:50:43.582Z,2.06
2022-12-04T08:51:43.544Z,2.06
2022-12-04T08:52:43.543Z,2.04
2022-12-04T08:53:43.521Z,2.08
2022-12-04T08:54:43.523Z,2.08
2022-12-04T08:55:43.501Z,2.08
2022-12-04T08:56:43.474Z,2.10
2022-12-04T08:57:43.472Z,2.12
2022-12-04T08:58:43.460Z,2.12
2022-12-04T08:59:43.454Z,2.13
2022-12-04T09:00:43.476Z,2.16
2022-12-04T09:01:43.595Z,2.17
2022-12-04T09:02:43.433Z,2.16
2022-12-04T09:03:43.394Z,2.16
2022-12-04T09:04:43.465Z,2.16
2022-12-04T09:05:43.373Z,2.16
2022-12-04T09:06:43.376Z,2.16
2022-12-04T09:07:43.404Z,2.15
2022-12-04T09:08:43.334Z,2.16
2022-12-04T09:09:48.097Z,2.17
2022-12-04T09:10:44.312Z,2.17
2022-12-04T09:11:43.292Z,2.17
2022-12-04T09:12:43.272Z,2.20
2022-12-04T09:13:43.263Z,2.19
2022-12-04T09:14:43.311Z,2.20
2022-12-04T09:15:43.309Z,2.22
2022-12-04T09:16:43.293Z,2.22
2022-12-04T09:17:43.209Z,2.23
2022-12-04T09:18:43.185Z,2.23
2022-12-04T09:19:43.173Z,2.23
2022-12-04T09:20:43.153Z,2.22
2022-12-04T09:21:43.170Z,2.23
2022-12-04T09:23:02.709Z,2.26
2022-12-04T09:23:44.131Z,2.30
2022-12-04T09:24:43.101Z,2.33
2022-12-04T09:25:43.134Z,2.33
2022-12-04T09:26:43.152Z,2.34
2022-12-04T09:27:43.095Z,2.34
2022-12-04T09:28:43.071Z,2.34
2022-12-04T09:29:43.062Z,2.35
2022-12-04T09:30:43.094Z,2.38
2022-12-04T09:31:43.184Z,2.38
2022-12-04T09:32:43.072Z,2.40
2022-12-04T09:33:43.001Z,2.52
2022-12-04T09:34:44.348Z,2.64
2022-12-04T09:35:42.995Z,2.70
2022-12-04T09:36:43.030Z,2.74
2022-12-04T09:37:42.963Z,2.77
2022-12-04T09:38:43.001Z,2.79
2022-12-04T09:39:42.952Z,2.85
2022-12-04T09:40:42.962Z,2.91
2022-12-04T09:41:42.954Z,2.95
2022-12-04T09:42:42.912Z,2.97
2022-12-04T09:43:42.914Z,3.02
2022-12-04T09:44:42.863Z,3.00
2022-12-04T09:45:42.864Z,2.95
2022-12-04T09:46:42.962Z,2.98
2022-12-04T09:47:42.862Z,2.98
2022-12-04T09:48:42.825Z,2.98
2022-12-04T09:49:42.811Z,2.98
2022-12-04T09:50:42.794Z,3.00
2022-12-04T09:51:42.870Z,2.98
2022-12-04T09:52:42.778Z,3.00
2022-12-04T09:53:42.773Z,2.98
2022-12-04T09:54:42.740Z,3.00
2022-12-04T09:55:42.731Z,3.02
2022-12-04T09:56:42.700Z,3.02
2022-12-04T09:57:42.713Z,3.05
2022-12-04T09:58:42.693Z,3.05
2022-12-04T09:59:42.705Z,3.02
2022-12-04T10:00:42.664Z,3.03
2022-12-04T10:01:42.659Z,3.06
2022-12-04T10:02:42.804Z,3.07
2022-12-04T10:03:42.944Z,3.13
2022-12-04T10:04:42.624Z,3.13
2022-12-04T10:05:42.719Z,3.13
2022-12-04T10:06:42.579Z,3.13
2022-12-04T10:07:42.646Z,3.15
2022-12-04T10:08:42.551Z,3.13
2022-12-04T10:09:42.550Z,3.15
2022-12-04T10:10:42.612Z,3.18
2022-12-04T10:11:42.540Z,3.18
2022-12-04T10:12:42.508Z,3.18
2022-12-04T10:13:42.520Z,3.20
2022-12-04T10:14:42.486Z,3.21
2022-12-04T10:15:42.563Z,3.21
2022-12-04T10:16:42.472Z,3.20
2022-12-04T10:17:42.449Z,3.15
2022-12-04T10:18:42.422Z,3.16
2022-12-04T10:19:42.437Z,3.18
2022-12-04T10:20:42.419Z,3.16
2022-12-04T10:21:42.481Z,3.18
2022-12-04T10:22:42.401Z,3.18
2022-12-04T10:23:42.395Z,3.18
2022-12-04T10:24:42.442Z,3.18
2022-12-04T10:25:43.489Z,3.18
2022-12-04T10:26:42.363Z,3.21
2022-12-04T10:27:42.351Z,3.21
2022-12-04T10:28:42.358Z,3.24
2022-12-04T10:29:42.310Z,3.25
2022-12-04T10:30:42.284Z,3.25
2022-12-04T10:31:42.415Z,3.25
2022-12-04T10:32:42.299Z,3.24
2022-12-04T10:33:42.251Z,3.21
2022-12-04T10:34:45.642Z,3.21
2022-12-04T10:35:42.220Z,3.25
2022-12-04T10:36:42.209Z,3.28
2022-12-04T10:37:42.230Z,3.30
2022-12-04T10:38:42.199Z,3.30
2022-12-04T10:39:42.190Z,3.33
2022-12-04T10:40:42.151Z,3.34
2022-12-04T10:41:42.221Z,3.36
2022-12-04T10:42:42.155Z,3.39
2022-12-04T10:43:42.161Z,3.39
2022-12-04T10:44:42.109Z,3.39
2022-12-04T10:45:42.218Z,3.46
2022-12-04T10:46:46.015Z,3.49
2022-12-04T10:47:42.078Z,3.44
2022-12-04T10:48:42.058Z,3.42
2022-12-04T10:49:42.047Z,3.39
2022-12-04T10:50:42.018Z,3.36
2022-12-04T10:51:42.029Z,3.39
2022-12-04T10:52:42.051Z,3.34
2022-12-04T10:53:42.300Z,3.39
2022-12-04T10:54:41.979Z,3.33
2022-12-04T10:55:41.970Z,3.30
2022-12-04T10:56:41.955Z,3.23
2022-12-04T10:57:41.962Z,3.21
2022-12-04T10:58:41.936Z,3.18
2022-12-04T10:59:41.929Z,3.15
2022-12-04T11:00:41.891Z,3.13
2022-12-04T11:01:41.945Z,3.12
2022-12-04T11:02:42.007Z,3.10
2022-12-04T11:03:41.931Z,3.09
2022-12-04T11:04:41.854Z,3.06
2022-12-04T11:05:41.951Z,3.03
2022-12-04T11:06:41.818Z,2.98
2022-12-04T11:07:41.862Z,2.97
2022-12-04T11:08:41.797Z,2.97
2022-12-04T11:09:41.807Z,2.97
2022-12-04T11:10:41.770Z,2.97
2022-12-04T11:11:41.964Z,2.98
2022-12-04T11:12:41.749Z,2.98
2022-12-04T11:13:41.739Z,3.02
2022-12-04T11:14:46.649Z,3.02
2022-12-04T11:15:42.774Z,3.00
2022-12-04T11:16:41.743Z,3.00
2022-12-04T11:17:41.687Z,2.97
2022-12-04T11:18:41.667Z,2.97
2022-12-04T11:19:41.679Z,2.97
2022-12-04T11:20:46.711Z,2.95
2022-12-04T11:21:42.687Z,2.97
2022-12-04T11:22:41.619Z,2.94
2022-12-04T11:23:41.606Z,2.95
2022-12-04T11:24:41.607Z,2.95
2022-12-04T11:25:41.600Z,2.97
2022-12-04T11:26:41.631Z,2.98
2022-12-04T11:27:41.558Z,2.98
2022-12-04T11:28:42.685Z,2.98
2022-12-04T11:29:41.537Z,2.98
2022-12-04T11:30:41.520Z,3.02
2022-12-04T11:31:41.557Z,3.05
2022-12-04T11:32:41.476Z,3.03
2022-12-04T11:33:41.482Z,3.03
2022-12-04T11:34:41.478Z,3.06
2022-12-04T11:35:41.499Z,3.06
2022-12-04T11:36:41.467Z,3.06
2022-12-04T11:37:45.309Z,3.07
2022-12-04T11:38:41.429Z,3.06
2022-12-04T11:39:41.429Z,3.06
2022-12-04T11:40:41.409Z,3.05
2022-12-04T11:41:41.377Z,3.05
2022-12-04T11:42:41.370Z,3.05
2022-12-04T11:43:41.367Z,3.05
2022-12-04T11:44:41.330Z,3.06
2022-12-04T11:45:41.345Z,3.07
2022-12-04T11:46:41.365Z,3.07
2022-12-04T11:47:41.297Z,3.07
2022-12-04T11:48:41.267Z,3.09
2022-12-04T11:49:55.080Z,3.09
2022-12-04T11:50:42.279Z,3.10
2022-12-04T11:51:41.378Z,3.10
2022-12-04T11:52:41.228Z,3.12
2022-12-04T11:53:41.270Z,3.12
2022-12-04T11:54:41.207Z,3.12
2022-12-04T11:55:41.220Z,3.13
2022-12-04T11:56:41.187Z,3.13
2022-12-04T11:57:41.167Z,3.10
2022-12-04T11:58:41.146Z,3.13
2022-12-04T11:59:41.266Z,3.12
2022-12-04T12:00:41.124Z,3.12
2022-12-04T12:01:41.190Z,3.15
2022-12-04T12:02:41.185Z,3.13
2022-12-04T12:03:41.085Z,3.13
2022-12-04T12:04:41.055Z,3.13
2022-12-04T12:05:41.089Z,3.15
2022-12-04T12:06:41.047Z,3.15
2022-12-04T12:07:41.086Z,3.16
2022-12-04T12:08:41.016Z,3.12
2022-12-04T12:09:41.009Z,3.12
2022-12-04T12:10:44.684Z,3.12
2022-12-04T12:11:41.084Z,3.10
2022-12-04T12:12:40.975Z,3.09
2022-12-04T12:13:40.948Z,3.09
2022-12-04T12:14:40.953Z,3.07
2022-12-04T12:15:40.958Z,3.07
2022-12-04T12:16:41.019Z,3.07
2022-12-04T12:17:40.935Z,3.07
2022-12-04T12:18:40.876Z,3.09
2022-12-04T12:19:40.877Z,3.07
2022-12-04T12:20:40.867Z,3.06
2022-12-04T12:21:40.877Z,3.05
2022-12-04T12:22:40.826Z,3.03
2022-12-04T12:23:40.857Z,3.03
2022-12-04T12:24:40.806Z,3.05
2022-12-04T12:25:40.786Z,3.06
2022-12-04T12:26:40.774Z,3.03
2022-12-04T12:27:40.776Z,3.03
2022-12-04T12:28:40.766Z,3.05
2022-12-04T12:29:40.796Z,3.05
2022-12-04T12:30:40.717Z,3.06
2022-12-04T12:31:40.766Z,3.05
2022-12-04T12:32:40.696Z,3.06
2022-12-04T12:33:40.697Z,3.05
2022-12-04T12:34:40.687Z,3.05
2022-12-04T12:35:40.669Z,3.05
2022-12-04T12:36:43.783Z,3.06
2022-12-04T12:37:40.653Z,3.06
2022-12-04T12:38:40.615Z,3.07
2022-12-04T12:39:40.625Z,3.09
2022-12-04T12:40:40.596Z,3.06
2022-12-04T12:41:40.596Z,3.07
2022-12-04T12:42:40.688Z,3.07
2022-12-04T12:43:40.638Z,3.09
2022-12-04T12:44:40.553Z,3.09
2022-12-04T12:45:40.559Z,3.07
2022-12-04T12:46:40.597Z,3.07
2022-12-04T12:47:40.514Z,3.09
2022-12-04T12:48:40.489Z,3.09
2022-12-04T12:49:40.516Z,3.09
2022-12-04T12:50:40.486Z,3.07
2022-12-04T12:51:40.467Z,3.07
2022-12-04T12:52:40.466Z,3.07
2022-12-04T12:53:40.433Z,3.07
2022-12-04T12:54:40.417Z,3.09
2022-12-04T12:55:40.413Z,3.09
2022-12-04T12:56:43.478Z,3.10
2022-12-04T12:57:41.377Z,3.10
2022-12-04T12:58:40.354Z,3.10
2022-12-04T12:59:40.413Z,3.12
2022-12-04T13:00:40.346Z,3.12
2022-12-04T13:01:40.403Z,3.12
2022-12-04T13:02:40.339Z,3.12
2022-12-04T13:03:40.323Z,3.12
2022-12-04T13:04:40.337Z,3.12
2022-12-04T13:05:40.306Z,3.12
2022-12-04T13:06:40.295Z,3.09
2022-12-04T13:07:40.325Z,3.10
2022-12-04T13:08:43.609Z,3.10
2022-12-04T13:09:41.224Z,3.12
2022-12-04T13:10:40.382Z,3.13
2022-12-04T13:11:40.213Z,3.12
2022-12-04T13:12:40.172Z,3.12
2022-12-04T13:13:40.219Z,3.12
2022-12-04T13:14:43.468Z,3.12
2022-12-04T13:15:41.143Z,3.12
2022-12-04T13:16:40.216Z,3.13
2022-12-04T13:17:40.156Z,3.15
2022-12-04T13:18:40.165Z,3.13